Time;durP1;ratioP1;P1;durP2;ratioP2;P2;SDS_P1;SDS_P2;PMS_P1;PMS_P2;Temp;Humidity;BMP_temperature;BMP_pressure;BME280_temperature;BME280_humidity;BME280_pressure;Samples;Min_cycle;Max_cycle;Signal;HPM_P1;HPM_P2
2023/03/12 00:02:32;;;;;;;;;4.67;3.33;;;;;15.04;61.26;99706.75;146612;585;45017;-73
2023/03/12 00:05:31;;;;;;;;;3.67;3.67;;;;;14.98;61.24;99702.31;146612;589;45020;-71
2023/03/12 00:08:45;;;;;;;;;7.25;7.25;;;;;14.96;62.15;99693.56;146611;581;45016;-71
2023/03/12 00:11:40;;;;;;;;;12.75;10.00;;;;;14.96;61.99;99684.88;146613;633;45020;-71
2023/03/12 00:14:49;;;;;;;;;11.50;9.25;;;;;13.17;60.34;99387.88;146609;648;45914;-71
2023/03/12 00:18:00;;;;;;;;;6.00;4.75;;;;;14.83;60.42;99683.78;146611;659;45020;-70
2023/03/12 00:21:00;;;;;;;;;3.00;2.00;;;;;14.82;60.14;99689.84;146610;679;45031;-71
2023/03/12 00:24:07;;;;;;;;;3.50;3.50;;;;;14.87;59.47;99676.88;146610;586;45021;-71
2023/03/12 00:27:23;;;;;;;;;5.25;5.25;;;;;14.94;60.43;99689.19;146609;603;45914;-72
2023/03/12 00:30:16;;;;;;;;;4.00;4.00;;;;;14.95;60.70;99680.47;146613;660;45020;-71
2023/03/12 00:33:34;;;;;;;;;4.75;2.75;;;;;14.91;60.54;99684.78;146608;657;45016;-72
2023/03/12 00:36:37;;;;;;;;;3.00;3.00;;;;;14.92;59.22;99675.22;146612;653;45020;-73
2023/03/12 00:39:35;;;;;;;;;4.50;3.00;;;;;14.98;59.27;99684.06;146612;648;45021;-72
2023/03/12 00:42:53;;;;;;;;;2.00;2.00;;;;;13.09;58.45;99347.84;146613;575;45020;-72
2023/03/12 00:45:54;;;;;;;;;6.00;3.00;;;;;15.08;59.03;99674.63;146609;596;45018;-71
2023/03/12 00:49:22;;;;;;;;;6.75;6.75;;;;;15.13;58.42;99665.13;146610;597;46020;-72
2023/03/12 00:52:30;;;;;;;;;9.00;8.00;;;;;13.06;57.56;99298.34;146608;608;45914;-70
2023/03/12 00:55:34;;;;;;;;;4.75;4.75;;;;;15.16;59.21;99657.34;146609;579;46020;-70
2023/03/12 00:58:45;;;;;;;;;3.75;2.75;;;;;15.15;58.79;99652.97;146609;570;45016;-70
2023/03/12 01:01:44;;;;;;;;;2.33;2.33;;;;;15.12;57.81;99660.75;146614;602;45025;-70
2023/03/12 01:04:39;;;;;;;;;8.00;7.00;;;;;15.15;57.32;99662.56;146626;689;47914;-70
2023/03/12 01:07:58;;;;;;;;;1.00;1.00;;;;;15.18;55.14;99662.59;146634;579;44916;-72
2023/03/12 01:11:10;;;;;;;;;0.00;0.00;;;;;15.27;54.19;99657.53;146635;624;44016;-68
2023/03/12 01:14:18;;;;;;;;;0.00;0.00;;;;;15.34;52.38;99653.25;146634;598;44024;-69
2023/03/12 01:17:15;;;;;;;;;0.00;0.00;;;;;15.42;52.31;99660.34;146632;622;45016;-72
2023/03/12 01:20:25;;;;;;;;;0.00;0.00;;;;;15.51;52.56;99656.09;146632;596;46021;-69
2023/03/12 01:23:20;;;;;;;;;0.00;0.00;;;;;15.58;51.78;99663.19;146632;564;44017;-72
2023/03/12 01:26:33;;;;;;;;;0.00;0.00;;;;;15.63;51.65;99646.69;146632;565;44030;-72
2023/03/12 01:29:30;;;;;;;;;0.00;0.00;;;;;15.65;50.54;99645.00;146631;570;44028;-73
2023/03/12 01:32:26;;;;;;;;;0.00;0.00;;;;;15.66;50.01;99645.88;146635;571;44024;-73
2023/03/12 01:35:38;;;;;;;;;0.50;0.00;;;;;15.66;50.26;99651.09;146630;563;44913;-75
2023/03/12 01:38:36;;;;;;;;;0.00;0.00;;;;;15.63;49.65;99649.31;146622;605;47010;-73
2023/03/12 01:41:35;;;;;;;;;0.50;0.00;;;;;15.60;52.54;99648.41;146630;653;44016;-70
2023/03/12 01:44:30;;;;;;;;;0.50;0.50;;;;;15.52;55.32;99652.66;146628;578;45914;-70
2023/03/12 01:47:32;;;;;;;;;1.00;0.67;;;;;15.41;56.59;99663.81;146634;614;44016;-71
2023/03/12 01:50:32;;;;;;;;;1.00;0.75;;;;;15.32;58.07;99654.97;146632;679;44020;-73
2023/03/12 01:53:28;;;;;;;;;1.00;1.00;;;;;15.19;58.95;99646.06;146630;640;44914;-70
2023/03/12 01:56:34;;;;;;;;;2.00;0.00;;;;;15.06;59.17;99650.22;146634;606;45010;-73
2023/03/12 01:59:42;;;;;;;;;2.33;1.00;;;;;14.96;59.22;99657.03;146632;641;44017;-76
2023/03/12 02:03:03;;;;;;;;;1.00;1.00;;;;;14.90;58.82;99658.66;146626;681;45012;-70
2023/03/12 02:06:19;;;;;;;;;0.33;0.00;;;;;14.87;58.78;99648.16;146610;594;45017;-70
2023/03/12 02:09:24;;;;;;;;;1.00;0.00;;;;;14.88;59.17;99650.78;146613;651;45021;-70
2023/03/12 02:12:37;;;;;;;;;1.33;1.00;;;;;12.89;58.06;99311.88;146610;580;45016;-70
2023/03/12 02:15:40;;;;;;;;;3.00;2.00;;;;;14.90;59.41;99650.84;146611;600;45021;-69
2023/03/12 02:18:56;;;;;;;;;1.00;1.00;;;;;14.89;60.24;99660.41;146610;565;45016;-70
2023/03/12 02:22:04;;;;;;;;;2.33;0.33;;;;;14.89;59.71;99662.09;146609;645;46914;-76
2023/03/12 02:25:46;;;;;;;;;0.67;0.00;;;;;13.96;58.05;99500.53;146611;620;45918;-70
2023/03/12 02:28:55;;;;;;;;;0.00;0.00;;;;;14.93;59.32;99664.81;146610;586;45022;-69
2023/03/12 02:32:04;;;;;;;;;2.00;1.33;;;;;14.91;59.67;99669.12;146610;576;45016;-68
2023/03/12 02:35:08;;;;;;;;;0.00;0.00;;;;;14.86;60.03;99676.00;146614;666;45020;-69
2023/03/12 02:39:00;;;;;;;;;1.25;1.25;;;;;13.76;59.55;99494.94;146610;613;45017;-68
2023/03/12 02:42:24;;;;;;;;;1.25;1.00;;;;;12.76;59.65;99376.66;146613;566;45020;-70
2023/03/12 02:45:19;;;;;;;;;1.75;1.00;;;;;14.29;60.75;99680.13;146611;566;45017;-69
2023/03/12 02:48:14;;;;;;;;;2.00;1.75;;;;;14.15;60.84;99681.59;146613;564;45020;-71
2023/03/12 02:51:36;;;;;;;;;3.50;1.50;;;;;12.08;61.09;99336.19;146610;664;45016;-72
2023/03/12 02:54:40;;;;;;;;;0.67;0.67;;;;;13.96;62.75;99680.34;146611;577;45020;-73
2023/03/12 02:57:38;;;;;;;;;2.75;1.00;;;;;13.84;61.84;99700.94;146610;564;45016;-73
2023/03/12 03:00:37;;;;;;;;;1.33;1.00;;;;;13.72;62.58;99701.53;146612;595;45021;-68
2023/03/12 03:03:37;;;;;;;;;1.25;0.00;;;;;13.66;63.10;99700.53;146608;646;45016;-71
2023/03/12 03:06:38;;;;;;;;;1.00;1.00;;;;;13.52;64.33;99710.63;146612;597;45021;-72
2023/03/12 03:09:41;;;;;;;;;3.50;2.00;;;;;13.33;64.69;99715.41;146604;644;45016;-71
2023/03/12 03:12:35;;;;;;;;;2.50;2.00;;;;;13.18;64.76;99721.09;146610;702;45020;-68
2023/03/12 03:15:50;;;;;;;;;1.00;0.25;;;;;13.04;66.01;99721.59;146609;589;45017;-69
2023/03/12 03:18:44;;;;;;;;;3.25;2.25;;;;;12.86;66.72;99732.41;146611;618;46020;-71
2023/03/12 03:21:40;;;;;;;;;2.00;2.00;;;;;12.70;65.70;99750.19;146609;602;45914;-68
2023/03/12 03:24:46;;;;;;;;;5.50;2.00;;;;;12.61;65.89;99754.28;146612;569;45020;-70
2023/03/12 03:27:42;;;;;;;;;4.75;1.50;;;;;12.55;65.50;99761.91;146611;569;45016;-71
2023/03/12 03:30:42;;;;;;;;;1.00;1.00;;;;;12.51;65.32;99763.53;146612;606;45021;-70
2023/03/12 03:33:39;;;;;;;;;3.00;0.75;;;;;12.44;65.57;99777.22;146606;678;47914;-69
2023/03/12 03:36:44;;;;;;;;;1.00;1.00;;;;;12.34;65.39;99781.28;146612;593;45021;-69
2023/03/12 03:39:54;;;;;;;;;1.00;1.00;;;;;10.81;64.22;99533.47;146611;586;45042;-74
2023/03/12 03:42:50;;;;;;;;;1.00;1.00;;;;;12.31;64.83;99791.59;146611;597;45021;-78
2023/03/12 03:45:59;;;;;;;;;0.33;0.33;;;;;12.31;64.10;99795.91;146609;587;45913;-70
2023/03/12 03:49:15;;;;;;;;;1.00;0.00;;;;;12.33;63.74;99802.87;146611;618;45021;-74
2023/03/12 03:52:24;;;;;;;;;0.00;0.00;;;;;12.36;64.17;99809.91;146611;645;45017;-72
2023/03/12 03:55:30;;;;;;;;;0.00;0.00;;;;;10.37;63.40;99454.28;146612;603;45020;-75
2023/03/12 03:58:46;;;;;;;;;0.00;0.00;;;;;12.42;62.76;99816.16;146610;627;45914;-75
2023/03/12 04:01:57;;;;;;;;;9.50;8.25;;;;;12.43;63.43;99812.75;146611;612;45020;-73
2023/03/12 04:05:18;;;;;;;;;3.00;1.00;;;;;12.50;63.40;99815.50;146611;622;45016;-74
2023/03/12 04:08:29;;;;;;;;;2.50;2.00;;;;;12.51;62.58;99820.75;146611;710;46010;-73
2023/03/12 04:11:26;;;;;;;;;1.25;1.25;;;;;12.51;63.10;99825.94;146610;572;45016;-74
2023/03/12 04:14:29;;;;;;;;;2.50;2.50;;;;;12.44;62.50;99819.69;146612;641;45021;-74
2023/03/12 04:17:40;;;;;;;;;0.50;0.50;;;;;12.37;63.47;99832.47;146609;569;45016;-72
2023/03/12 04:20:42;;;;;;;;;1.00;1.00;;;;;12.28;63.25;99838.28;146613;657;45021;-72
2023/03/12 04:23:58;;;;;;;;;1.00;0.00;;;;;12.21;63.63;99846.69;146609;575;45916;-71
2023/03/12 04:26:52;;;;;;;;;1.00;0.00;;;;;12.14;64.11;99849.97;146610;573;45021;-75
2023/03/12 04:29:58;;;;;;;;;1.00;0.00;;;;;12.11;63.63;99849.84;146611;602;45016;-73
2023/03/12 04:33:05;;;;;;;;;0.00;0.00;;;;;10.02;62.55;99491.97;146612;647;45020;-72
2023/03/12 04:36:08;;;;;;;;;2.00;2.00;;;;;12.17;63.08;99857.84;146611;570;45017;-73
2023/03/12 04:39:06;;;;;;;;;0.50;0.00;;;;;12.15;63.78;99855.22;146610;666;45020;-72
2023/03/12 04:42:10;;;;;;;;;1.25;1.00;;;;;12.19;63.55;99872.66;146605;727;45017;-74
2023/03/12 04:45:11;;;;;;;;;6.50;6.25;;;;;12.25;63.95;99875.44;146613;580;45020;-72
2023/03/12 04:48:17;;;;;;;;;3.75;2.00;;;;;12.34;63.17;99890.44;146610;680;45912;-73
2023/03/12 04:51:27;;;;;;;;;;;;;;;;;;;;;
2023/03/12 04:54:38;;;;;;;;;0.25;0.25;;;;;12.36;62.51;99901.75;146610;575;45024;-73
2023/03/12 04:57:47;;;;;;;;;;;;;;;;;;;;;
2023/03/12 05:00:53;;;;;;;;;0.00;0.00;;;;;12.34;62.69;99924.25;146609;607;45018;-70
2023/03/12 05:04:04;;;;;;;;;3.00;2.00;;;;;12.36;62.29;99937.28;146615;597;45037;-70
2023/03/12 05:07:22;;;;;;;;;;;;;;;;;;;;;
2023/03/12 05:10:19;;;;;;;;;0.25;0.00;;;;;12.52;62.27;99943.84;146620;666;45022;-71
2023/03/12 05:13:30;;;;;;;;;0.75;0.75;;;;;12.59;61.58;99948.41;146617;731;45017;-71
2023/03/12 05:16:40;;;;;;;;;2.00;2.00;;;;;12.63;63.36;99963.25;146620;564;45020;-71
2023/03/12 05:19:32;;;;;;;;;1.00;1.00;;;;;12.58;63.25;99962.22;146615;608;45914;-76
2023/03/12 05:22:46;;;;;;;;;;;;;;;;;;;;;
2023/03/12 05:25:49;;;;;;;;;3.00;0.00;;;;;13.43;62.29;99982.12;146616;634;45018;-76
2023/03/12 05:28:54;;;;;;;;;0.33;0.33;;;;;14.33;59.79;99979.25;146618;573;45021;-77
2023/03/12 05:31:58;;;;;;;;;1.00;1.00;;;;;15.48;53.54;99970.44;146615;626;45914;-76
2023/03/12 05:34:58;;;;;;;;;0.00;0.00;;;;;16.47;48.77;99971.31;146616;655;45021;-77
2023/03/12 05:38:02;;;;;;;;;0.00;0.00;;;;;17.37;45.49;99974.31;146617;631;45914;-77
2023/03/12 05:41:05;;;;;;;;;0.00;0.00;;;;;17.84;43.03;99976.59;146619;584;45021;-78
2023/03/12 05:44:01;;;;;;;;;1.00;0.00;;;;;17.79;42.50;99988.81;146615;603;45914;-81
2023/03/12 05:47:13;;;;;;;;;1.00;0.00;;;;;15.65;43.77;99584.88;146618;563;45020;-81
2023/03/12 05:50:20;;;;;;;;;1.00;0.00;;;;;16.43;45.01;99679.09;146616;590;45019;-77
2023/03/12 05:53:22;;;;;;;;;1.00;0.33;;;;;18.51;42.14;99999.06;146620;614;45020;-76
2023/03/12 05:56:27;;;;;;;;;0.00;0.00;;;;;18.76;38.43;100010.66;146619;603;45914;-74
2023/03/12 05:59:24;;;;;;;;;1.00;0.00;;;;;18.74;42.01;100033.37;146618;684;45020;-79
2023/03/12 06:02:20;;;;;;;;;0.00;0.00;;;;;18.68;39.46;100034.19;146617;590;45017;-80
2023/03/12 06:05:32;;;;;;;;;0.00;0.00;;;;;18.72;40.19;100025.44;146610;571;45021;-70
2023/03/12 06:08:27;;;;;;;;;2.33;0.00;;;;;18.66;38.80;100015.81;146611;565;45016;-74
2023/03/12 06:11:35;;;;;;;;;0.00;0.00;;;;;18.60;40.02;100028.88;146608;564;47021;-78
2023/03/12 06:14:41;;;;;;;;;0.00;0.00;;;;;18.67;41.36;100027.19;146609;572;45915;-77
2023/03/12 06:17:39;;;;;;;;;2.25;1.50;;;;;18.69;43.03;100035.91;146613;573;45020;-78
2023/03/12 06:20:39;;;;;;;;;1.00;0.00;;;;;18.54;44.48;100035.84;146608;591;45916;-77
2023/03/12 06:23:37;;;;;;;;;2.00;1.00;;;;;18.35;46.72;100046.19;146610;632;45020;-77
2023/03/12 06:26:34;;;;;;;;;1.33;0.67;;;;;18.30;47.33;100050.50;146611;595;45916;-78
2023/03/12 06:29:45;;;;;;;;;1.00;0.67;;;;;18.38;47.36;100046.22;146614;637;45020;-77
2023/03/12 06:32:45;;;;;;;;;2.25;1.25;;;;;18.33;45.12;100058.41;146609;577;45016;-77
2023/03/12 06:36:01;;;;;;;;;2.00;1.75;;;;;18.35;46.15;100067.19;146610;672;45021;-76
2023/03/12 06:39:08;;;;;;;;;2.00;2.00;;;;;18.37;47.92;100072.44;146612;657;45016;-76
2023/03/12 06:42:14;;;;;;;;;2.50;2.00;;;;;18.42;47.83;100082.09;146609;643;46916;-76
2023/03/12 06:45:12;;;;;;;;;3.25;1.25;;;;;18.45;47.51;100078.63;146608;628;45912;-71
2023/03/12 06:48:24;;;;;;;;;3.75;3.00;;;;;18.46;48.92;100093.50;146612;680;45020;-76
2023/03/12 06:51:31;;;;;;;;;2.75;2.00;;;;;18.47;48.20;100092.63;146608;669;46916;-72
2023/03/12 06:54:34;;;;;;;;;2.00;2.00;;;;;18.37;49.07;100099.53;146612;593;45021;-76
2023/03/12 06:57:54;;;;;;;;;2.00;2.00;;;;;18.30;48.84;100099.47;146605;570;47016;-75
2023/03/12 07:00:47;;;;;;;;;0.00;0.00;;;;;18.16;48.47;100097.63;146612;590;45020;-75
2023/03/12 07:03:44;;;;;;;;;0.00;0.00;;;;;18.08;48.83;100101.87;146609;612;46916;-74
2023/03/12 07:06:50;;;;;;;;;0.00;0.00;;;;;18.16;48.52;100107.19;146613;565;45020;-76
2023/03/12 07:09:56;;;;;;;;;2.00;0.33;;;;;18.23;49.41;100101.19;146609;580;45017;-76
2023/03/12 07:13:13;;;;;;;;;0.33;0.00;;;;;18.36;49.14;100108.28;146614;594;45021;-74
2023/03/12 07:16:16;;;;;;;;;1.00;0.00;;;;;18.58;49.36;100116.38;146609;578;45018;-74
2023/03/12 07:19:24;;;;;;;;;0.00;0.00;;;;;17.91;49.31;99959.16;146614;625;45021;-74
2023/03/12 07:22:35;;;;;;;;;0.33;0.00;;;;;19.03;48.88;100129.00;146610;698;45016;-73
2023/03/12 07:25:37;;;;;;;;;0.00;0.00;;;;;19.15;47.11;100136.13;146613;566;45021;-74
2023/03/12 07:28:43;;;;;;;;;1.67;0.00;;;;;19.16;46.16;100122.13;146609;647;45914;-73
2023/03/12 07:31:57;;;;;;;;;0.00;0.00;;;;;19.09;47.03;100133.44;146614;653;45020;-72
2023/03/12 07:34:54;;;;;;;;;0.00;0.00;;;;;18.95;46.29;100143.00;146608;570;45913;-72
2023/03/12 07:38:05;;;;;;;;;1.00;0.00;;;;;18.90;48.04;100143.81;146613;680;45020;-71
2023/03/12 07:41:08;;;;;;;;;0.00;0.00;;;;;18.22;47.90;99997.06;146611;672;45017;-71
2023/03/12 07:44:06;;;;;;;;;0.00;0.00;;;;;19.35;46.70;100137.12;146612;569;45020;-71
2023/03/12 07:47:13;;;;;;;;;2.33;1.00;;;;;19.60;46.29;100151.31;146609;617;45912;-73
2023/03/12 07:50:08;;;;;;;;;0.00;0.00;;;;;19.74;46.42;100154.03;146611;635;45020;-71
2023/03/12 07:53:21;;;;;;;;;0.00;0.00;;;;;19.81;45.98;100155.84;146606;647;47017;-70
2023/03/12 07:56:23;;;;;;;;;1.00;0.00;;;;;19.82;45.69;100152.31;146613;651;45021;-72
2023/03/12 07:59:18;;;;;;;;;0.00;0.00;;;;;19.94;45.46;100154.12;146610;569;45912;-73
2023/03/12 08:02:24;;;;;;;;;;;;;;;;;;;;;
2023/03/12 08:05:41;;;;;;;;;1.00;0.00;;;;;20.17;46.40;100159.47;146610;615;45023;-70
2023/03/12 08:08:44;;;;;;;;;0.00;0.00;;;;;20.30;44.14;100169.16;146609;597;46010;-69
2023/03/12 08:11:47;;;;;;;;;0.00;0.00;;;;;20.46;44.77;100172.69;146609;564;45017;-72
2023/03/12 08:14:43;;;;;;;;;0.67;0.00;;;;;19.89;40.30;100033.94;146613;577;45020;-73
2023/03/12 08:18:00;;;;;;;;;;;;;;;;;;;;;
2023/03/12 08:21:00;;;;;;;;;1.33;0.00;;;;;20.53;34.84;100182.41;146612;605;45020;-73
2023/03/12 08:24:14;;;;;;;;;0.67;0.00;;;;;18.33;31.59;99892.19;146610;583;45914;-72
2023/03/12 08:27:11;;;;;;;;;0.00;0.00;;;;;19.54;29.68;100198.59;146613;615;45028;-70
2023/03/12 08:30:20;;;;;;;;;0.00;0.00;;;;;18.95;30.69;100211.28;146611;584;45883;-71
2023/03/12 08:33:16;;;;;;;;;0.00;0.00;;;;;18.38;29.29;100203.69;146611;606;45021;-70
2023/03/12 08:36:16;;;;;;;;;1.00;0.00;;;;;17.93;29.58;100207.50;146609;580;45016;-72
2023/03/12 08:39:11;;;;;;;;;0.00;0.00;;;;;17.63;30.47;100204.44;146612;604;45020;-72
2023/03/12 08:42:13;;;;;;;;;0.00;0.00;;;;;17.45;31.51;100210.31;146610;587;45026;-71
2023/03/12 08:45:20;;;;;;;;;0.00;0.00;;;;;17.28;32.81;100218.75;146613;602;45021;-72
2023/03/12 08:48:27;;;;;;;;;0.33;0.33;;;;;17.24;34.40;100227.44;146612;591;45016;-71
2023/03/12 08:51:28;;;;;;;;;2.00;2.00;;;;;17.29;31.16;100235.41;146613;641;45020;-73
2023/03/12 08:54:26;;;;;;;;;0.00;0.00;;;;;17.28;32.68;100226.63;146610;595;45914;-73
2023/03/12 08:57:38;;;;;;;;;7.50;7.25;;;;;17.23;30.28;100222.19;146614;576;45020;-72
2023/03/12 09:00:38;;;;;;;;;4.00;3.00;;;;;17.23;31.98;100230.06;146611;669;45023;-75
2023/03/12 09:03:49;;;;;;;;;5.25;4.75;;;;;17.30;31.68;100242.38;146611;683;45020;-72
2023/03/12 09:06:59;;;;;;;;;3.00;3.00;;;;;17.44;32.48;100240.84;146605;564;46012;-74
2023/03/12 09:10:00;;;;;;;;;2.50;2.00;;;;;17.64;31.72;100229.81;146608;601;45021;-74
2023/03/12 09:12:52;;;;;;;;;2.67;2.67;;;;;17.84;31.05;100223.13;146611;620;45914;-74
2023/03/12 09:15:52;;;;;;;;;3.75;1.50;;;;;17.90;33.50;100220.59;146610;583;45021;-73
2023/03/12 09:19:20;;;;;;;;;2.50;1.50;;;;;15.97;35.05;99898.16;146609;735;45016;-72
2023/03/12 09:22:41;;;;;;;;;3.00;2.00;;;;;17.81;32.44;100240.56;146613;584;45020;-72
2023/03/12 09:25:38;;;;;;;;;1.67;1.00;;;;;17.80;33.27;100234.44;146610;600;45016;-73
2023/03/12 09:28:45;;;;;;;;;;;;;;;;;;;;;
2023/03/12 09:31:57;;;;;;;;;1.00;1.00;;;;;18.04;32.50;100230.37;146610;575;45914;-72
2023/03/12 09:35:02;;;;;;;;;7.00;6.00;;;;;17.99;30.86;100225.06;146609;600;46012;-73
2023/03/12 09:38:06;;;;;;;;;4.75;4.75;;;;;17.86;31.33;100229.28;146610;625;45916;-74
2023/03/12 09:41:11;;;;;;;;;6.00;4.00;;;;;17.88;32.75;100229.28;146606;598;47010;-73
2023/03/12 09:44:32;;;;;;;;;3.00;3.00;;;;;18.04;36.59;100238.22;146609;582;45916;-73
2023/03/12 09:47:51;;;;;;;;;2.00;1.00;;;;;18.45;32.60;100221.25;146611;599;45021;-74
2023/03/12 09:51:35;;;;;;;;;6.25;5.25;;;;;18.57;32.76;100227.53;146611;719;45018;-73
2023/03/12 09:54:50;;;;;;;;;1.67;1.00;;;;;16.70;33.91;99928.88;146612;577;45021;-71
2023/03/12 09:57:56;;;;;;;;;2.33;2.33;;;;;18.53;32.17;100241.47;146609;601;45018;-72
2023/03/12 10:01:41;;;;;;;;;1.33;1.00;;;;;18.46;31.65;100256.28;146612;635;45021;-72
2023/03/12 10:05:01;;;;;;;;;2.33;2.33;;;;;18.31;32.45;100254.34;146616;570;45916;-73
2023/03/12 10:08:34;;;;;;;;;3.00;3.00;;;;;18.31;35.09;100256.97;146619;637;45021;-73
2023/03/12 10:11:48;;;;;;;;;1.00;0.00;;;;;18.40;33.33;100267.56;146615;639;45916;-74
2023/03/12 10:15:21;;;;;;;;;1.00;1.00;;;;;16.32;38.03;99916.13;146618;571;45021;-73
2023/03/12 10:18:59;;;;;;;;;1.00;1.00;;;;;16.42;34.77;99932.84;146617;605;45016;-73
2023/03/12 10:22:37;;;;;;;;;0.00;0.00;;;;;18.37;38.26;100264.03;146621;579;45020;-73
2023/03/12 10:25:56;;;;;;;;;1.00;1.00;;;;;18.38;32.48;100260.53;146616;596;46012;-76
2023/03/12 10:29:13;;;;;;;;;0.00;0.00;;;;;18.51;33.21;100256.34;146621;573;45020;-74
2023/03/12 10:32:38;;;;;;;;;1.00;1.00;;;;;18.64;34.54;100266.09;146614;670;45023;-72
2023/03/12 10:35:52;;;;;;;;;5.00;5.00;;;;;18.70;34.38;100263.56;146619;602;46010;-72
2023/03/12 10:38:58;;;;;;;;;3.00;2.75;;;;;18.84;32.76;100269.84;146614;650;45914;-73
2023/03/12 10:42:03;;;;;;;;;7.50;6.00;;;;;19.03;33.26;100285.78;146616;593;45020;-72
2023/03/12 10:45:18;;;;;;;;;2.67;2.67;;;;;19.16;31.87;100279.81;146612;630;47914;-72
2023/03/12 10:48:22;;;;;;;;;3.00;3.00;;;;;19.20;34.84;100286.84;146617;579;45022;-74
2023/03/12 10:51:24;;;;;;;;;3.00;1.33;;;;;18.35;33.70;100139.75;146617;689;45016;-73
2023/03/12 10:54:36;;;;;;;;;3.00;1.00;;;;;19.14;34.80;100281.53;146619;569;45021;-73
2023/03/12 10:57:52;;;;;;;;;4.67;2.00;;;;;19.07;35.07;100282.34;146617;634;45016;-73
2023/03/12 11:01:11;;;;;;;;;11.50;11.00;;;;;19.02;34.46;100278.78;146619;625;45021;-73
2023/03/12 11:04:46;;;;;;;;;4.00;3.00;;;;;16.97;37.83;99954.59;146611;590;45914;-74
2023/03/12 11:08:03;;;;;;;;;;;;;;;;;;;;;
2023/03/12 11:11:09;;;;;;;;;3.00;3.00;;;;;18.42;33.02;100289.47;146608;654;45912;-71
2023/03/12 11:14:38;;;;;;;;;6.00;5.00;;;;;16.38;35.08;99977.28;146612;581;45021;-74
2023/03/12 11:17:49;;;;;;;;;3.75;3.00;;;;;17.96;34.32;100288.00;146608;657;45912;-73
2023/03/12 11:20:43;;;;;;;;;2.00;2.00;;;;;17.76;35.09;100296.41;146612;607;45022;-72
2023/03/12 11:23:42;;;;;;;;;4.00;3.50;;;;;17.62;37.28;100287.44;146610;588;45916;-72
2023/03/12 11:27:32;;;;;;;;;6.75;5.50;;;;;16.63;37.60;100156.56;146611;657;45020;-71
2023/03/12 11:30:44;;;;;;;;;1.75;1.75;;;;;17.38;37.61;100285.31;146610;563;45916;-74
2023/03/12 11:33:50;;;;;;;;;7.75;5.25;;;;;17.22;36.52;100289.41;146611;575;46010;-73
2023/03/12 11:37:39;;;;;;;;;;;;;;;;;;;;;
2023/03/12 11:41:22;;;;;;;;;;;;;;;;;;;;;
2023/03/12 11:44:40;;;;;;;;;;;;;;;;;;;;;
2023/03/12 11:48:31;;;;;;;;;10.75;8.75;;;;;14.79;39.02;99982.94;146610;642;45020;-74
2023/03/12 11:52:15;;;;;;;;;7.25;7.00;;;;;14.95;38.33;100022.44;146611;585;45016;-79
2023/03/12 11:55:43;;;;;;;;;2.50;1.50;;;;;14.40;38.02;99954.19;146612;599;45020;-73
2023/03/12 11:59:19;;;;;;;;;7.00;7.00;;;;;16.28;39.12;100301.53;146610;678;45017;-72
2023/03/12 12:02:56;;;;;;;;;10.25;7.50;;;;;14.17;35.72;99961.47;146612;571;45020;-73
2023/03/12 12:06:30;;;;;;;;;6.75;6.75;;;;;16.14;38.37;100323.03;146630;603;45914;-71
2023/03/12 12:10:03;;;;;;;;;6.50;6.00;;;;;16.03;36.74;100318.41;146633;593;45008;-74
2023/03/12 12:13:36;;;;;;;;;6.00;4.25;;;;;15.79;36.74;100314.38;146630;651;44017;-71
2023/03/12 12:17:21;;;;;;;;;2.00;2.00;;;;;13.45;37.24;99967.41;146634;563;44020;-74
2023/03/12 12:21:07;;;;;;;;;3.00;2.00;;;;;13.39;39.11;99993.28;146627;666;44913;-73
2023/03/12 12:24:42;;;;;;;;;2.00;1.00;;;;;14.23;38.54;100153.69;146633;596;44914;-73
2023/03/12 12:28:03;;;;;;;;;2.00;1.00;;;;;15.10;37.01;100319.59;146634;673;44016;-74
2023/03/12 12:32:03;;;;;;;;;3.75;3.00;;;;;15.01;39.03;100334.19;146634;595;44914;-72
2023/03/12 12:35:41;;;;;;;;;6.75;5.50;;;;;13.42;40.34;100066.28;146633;566;44017;-73
2023/03/12 12:39:43;;;;;;;;;4.75;3.50;;;;;13.10;38.50;99988.09;146631;625;44912;-73
2023/03/12 12:43:21;;;;;;;;;5.00;4.00;;;;;13.33;38.69;100025.25;146631;581;44914;-73
2023/03/12 12:46:38;;;;;;;;;8.75;8.00;;;;;15.31;39.42;100348.87;146634;582;44048;-73
2023/03/12 12:50:02;;;;;;;;;24.25;22.00;;;;;13.43;39.49;100009.87;146631;595;45012;-73
2023/03/12 12:54:09;;;;;;;;;;;;;;;;;;;;;
2023/03/12 12:58:04;;;;;;;;;8.00;8.00;;;;;13.55;40.11;100018.03;146633;658;44914;-74
2023/03/12 13:01:17;;;;;;;;;6.25;6.00;;;;;15.62;39.73;100368.84;146634;585;44020;-73
2023/03/12 13:04:34;;;;;;;;;8.25;5.00;;;;;15.67;39.01;100374.22;146615;573;45014;-73
2023/03/12 13:07:42;;;;;;;;;9.25;9.25;;;;;15.71;38.74;100383.91;146611;608;45029;-73
2023/03/12 13:10:51;;;;;;;;;4.75;4.25;;;;;15.74;38.26;100383.09;146608;693;45016;-74
2023/03/12 13:14:27;;;;;;;;;4.00;4.00;;;;;15.74;38.91;100388.31;146610;564;46010;-73
2023/03/12 13:17:46;;;;;;;;;8.00;6.00;;;;;15.73;38.57;100390.03;146608;587;46914;-72
2023/03/12 13:21:41;;;;;;;;;7.50;7.00;;;;;15.74;39.65;100389.19;146611;671;45023;-71
2023/03/12 13:25:18;;;;;;;;;5.00;3.75;;;;;14.06;39.39;100101.09;146608;591;45016;-71
2023/03/12 13:29:11;;;;;;;;;14.00;13.00;;;;;13.83;40.35;100053.53;146611;583;45021;-71
2023/03/12 13:33:05;;;;;;;;;8.75;7.75;;;;;14.01;40.33;100063.59;146607;606;45024;-72
2023/03/12 13:36:27;;;;;;;;;2.25;2.25;;;;;16.02;39.87;100393.37;146610;587;47010;-73
2023/03/12 13:39:39;;;;;;;;;21.50;20.50;;;;;16.11;39.75;100401.44;146610;566;45016;-72
2023/03/12 13:43:07;;;;;;;;;5.75;5.75;;;;;16.15;39.47;100395.41;146612;633;45020;-70
2023/03/12 13:46:45;;;;;;;;;3.75;3.50;;;;;13.76;39.70;99976.06;146611;599;45912;-70
2023/03/12 13:50:20;;;;;;;;;1.75;0.00;;;;;14.62;39.24;100124.31;146613;681;45021;-70
2023/03/12 13:53:32;;;;;;;;;2.00;1.00;;;;;16.38;38.67;100416.87;146610;580;45018;-71
2023/03/12 13:57:01;;;;;;;;;4.75;4.75;;;;;15.48;39.86;100236.94;146608;687;45914;-69
2023/03/12 14:00:09;;;;;;;;;5.00;3.00;;;;;16.56;38.79;100415.53;146609;570;45912;-70
2023/03/12 14:03:34;;;;;;;;;8.75;6.25;;;;;14.69;39.83;100090.59;146614;658;45020;-70
2023/03/12 14:07:13;;;;;;;;;17.00;14.75;;;;;15.55;39.43;100246.72;146608;567;46014;-70
2023/03/12 14:10:43;;;;;;;;;8.50;6.75;;;;;16.49;39.89;100430.22;146614;661;45020;-70
2023/03/12 14:14:32;;;;;;;;;2.50;2.00;;;;;16.40;40.00;100443.97;146610;589;45914;-70
2023/03/12 14:18:01;;;;;;;;;16.50;14.75;;;;;16.30;39.10;100443.72;146608;609;45020;-71
2023/03/12 14:21:33;;;;;;;;;12.50;12.25;;;;;15.08;40.87;100264.72;146604;572;47914;-70
2023/03/12 14:24:54;;;;;;;;;9.50;9.50;;;;;16.11;40.15;100455.50;146609;612;45020;-70
2023/03/12 14:28:14;;;;;;;;;7.75;5.50;;;;;14.12;40.62;100127.34;146610;639;45937;-70
2023/03/12 14:31:31;;;;;;;;;8.00;7.75;;;;;16.01;40.88;100470.06;146612;573;45031;-72
2023/03/12 14:35:02;;;;;;;;;9.50;8.25;;;;;15.99;39.49;100463.03;146609;572;45912;-71
2023/03/12 14:38:33;;;;;;;;;17.00;13.00;;;;;15.97;40.77;100475.16;146611;563;45020;-70
2023/03/12 14:41:40;;;;;;;;;8.00;8.00;;;;;15.96;39.37;100471.69;146610;566;45912;-71
2023/03/12 14:44:43;;;;;;;;;5.50;5.25;;;;;15.90;39.92;100467.16;146612;722;45020;-71
2023/03/12 14:48:02;;;;;;;;;7.50;5.75;;;;;14.03;41.05;100160.97;146609;560;45016;-73
2023/03/12 14:51:07;;;;;;;;;17.00;13.50;;;;;15.87;40.51;100469.69;146608;596;45911;-72
2023/03/12 14:54:08;;;;;;;;;5.75;4.50;;;;;15.93;40.02;100480.31;146610;679;45016;-72
2023/03/12 14:57:10;;;;;;;;;42.75;34.25;;;;;15.94;40.83;100479.47;146611;581;45021;-71
2023/03/12 15:00:07;;;;;;;;;10.50;8.50;;;;;15.97;40.13;100483.00;146610;571;45016;-71
2023/03/12 15:03:15;;;;;;;;;33.50;30.25;;;;;15.94;41.07;100486.44;146610;631;45020;-71
2023/03/12 15:06:33;;;;;;;;;18.25;16.50;;;;;15.93;40.22;100493.41;146611;645;45021;-71
2023/03/12 15:09:34;;;;;;;;;8.00;7.25;;;;;15.89;38.71;100495.91;146610;623;46012;-71
2023/03/12 15:12:41;;;;;;;;;7.75;7.75;;;;;15.75;39.29;100490.28;146607;611;45914;-70
2023/03/12 15:16:08;;;;;;;;;7.50;7.00;;;;;15.64;40.59;100497.84;146606;683;45022;-70
2023/03/12 15:19:12;;;;;;;;;10.00;8.00;;;;;15.55;42.98;100499.31;146607;593;45916;-70